Flight Track Log - Related Links

Times and Time Zones

All times are in EDT time to prevent confusion due to time zone crossing. See the RPA3361 flight status page for this flight to view local times or setup timezone preferences in your user account.

Time Position Orientation Groundspeed Altitude Reporting Facility
EDT Latitude Longitude Course Direction KTS MPH feet Rate Location/Type
Mon 05:59:04 PM 42.7256 -73.8053 196° South 142 163 1,400  Level Boston Center
Mon 05:59:34 PM 42.7047 -73.8133 196° South 166 191 1,800 1,906 Climbing Boston Center
Mon 06:00:29 PM 42.6853 -73.8778 248° West 221 254 4,100 2,431 Climbing Boston Center
Mon 06:01:30 PM 42.6611 -73.9619 249° West 247 284 6,500 2,459 Climbing Boston Center
Mon 06:02:31 PM 42.6683 -74.0411 277° West 236 272 9,100 2,579 Climbing Boston Center
Mon 06:03:31 PM 42.7153 -74.1214 309° West 236 272 11,700 1,900 Climbing Boston Center
Mon 06:04:31 PM 42.7264 -74.2036 280° West 243 280 12,900 1,100 Climbing Boston Center
Mon 06:05:31 PM 42.7017 -74.3217 263° West 274 315 13,900 1,550 Climbing Boston Center
Mon 06:06:31 PM 42.7269 -74.4186 290° West 296 341 16,000 2,200 Climbing Boston Center
Mon 06:07:31 PM 42.7708 -74.5331 298° West 307 353 18,300 2,050 Climbing Boston Center
Mon 06:08:31 PM 42.7978 -74.6500 287° West 319 367 20,100 1,550 Climbing Boston Center
Mon 06:09:31 PM 42.8189 -74.7442 287° West 319 367 21,400 1,750 Climbing Boston Center
Mon 06:10:31 PM 42.8514 -74.8869 287° West 326 375 23,600 1,900 Climbing Boston Center
Mon 06:11:31 PM 42.8444 -75.0058 265° West 315 362 25,200 1,409 Climbing Boston Center
Mon 06:12:43 PM 42.8314 -75.1269 262° West 320 368 26,700 1,045 Climbing Boston Center
Mon 06:13:43 PM 42.8153 -75.2764 262° West 333 383 27,500 650 Climbing Boston Center
Mon 06:14:43 PM 42.8017 -75.3975 261° West 333 383 28,000 250 Climbing Boston Center
Mon 06:15:43 PM 42.7881 -75.5211 262° West 333 383 28,000  Level Boston Center
Mon 06:16:43 PM 42.7742 -75.6422 261° West 333 383 28,000  Level Boston Center
Mon 06:17:43 PM 42.7603 -75.7631 261° West 333 383 28,000  Level Boston Center
Mon 06:18:43 PM 42.7389 -75.8525 252° West 328 377 28,000  Level Boston Center
Mon 06:19:43 PM 42.6542 -75.9636 224° Southwest 323 372 28,000  Level Boston Center
Mon 06:21:25 PM 42.5308 -76.0853 216° Southwest 336 387 28,000  Level New York Center
Mon 06:22:26 PM 42.4178 -76.0536 168° South 348 400 28,000  Level New York Center
Mon 06:23:27 PM 42.3100 -76.0450 177° South 373 429 28,000  Level New York Center
Mon 06:24:27 PM 42.2336 -76.1228 217° Southwest 339 390 28,000  Level New York Center
Mon 06:25:25 PM 42.1711 -76.2186 229° Southwest 334 384 28,000 -151 Level New York Center
Mon 06:26:26 PM 42.1064 -76.3111 227° Southwest 334 384 27,700 -450 Descending New York Center
Mon 06:27:25 PM 42.0417 -76.4061 227° Southwest 346 398 27,100 -545 Descending New York Center
Mon 06:28:27 PM 41.9789 -76.4983 228° Southwest 346 398 26,600 -492 Descending New York Center
Mon 06:29:27 PM 41.9142 -76.5878 226° Southwest 346 398 26,100 -305 Descending New York Center
Mon 06:30:25 PM 41.8467 -76.6903 229° Southwest 346 398 26,000 -50 Descending New York Center
Mon 06:31:26 PM 41.7817 -76.7819 226° Southwest 346 398 26,000  Level New York Center
Mon 06:32:27 PM 41.7144 -76.8758 226° Southwest 346 398 26,000  Level New York Center
Mon 06:33:25 PM 41.6492 -76.9700 227° Southwest 351 404 26,000  Level New York Center
Mon 06:34:25 PM 41.5839 -77.0611 226° Southwest 351 404 26,000  Level New York Center
Mon 06:35:26 PM 41.5183 -77.1575 228° Southwest 351 404 26,000 -149 Level New York Center
Mon 06:36:26 PM 41.4531 -77.2481 226° Southwest 346 398 25,700 -403 Descending New York Center
Mon 06:37:25 PM 41.3878 -77.3386 226° Southwest 346 398 25,200 -500 Descending New York Center
Mon 06:38:26 PM 41.3311 -77.4186 227° Southwest 346 398 24,700 -492 Descending New York Center
Mon 06:39:27 PM 41.2633 -77.5114 226° Southwest 346 398 24,200 -496 Descending New York Center
Mon 06:40:27 PM 41.1975 -77.6042 227° Southwest 346 398 23,700 -508 Descending New York Center
Mon 06:41:25 PM 41.1319 -77.6967 227° Southwest 346 398 23,200 -508 Descending New York Center
Mon 06:42:25 PM 41.0658 -77.7892 227° Southwest 346 398 22,700 -488 Descending New York Center
Mon 06:43:28 PM 40.9903 -77.8722 220° Southwest 346 398 22,200 -397 Descending New York Center
Mon 06:44:26 PM 40.8883 -77.9000 192° South 354 407 21,900 -353 Descending New York Center
Mon 06:45:27 PM 40.7872 -77.8483 159° South 356 410 21,500 -454 Descending New York Center
Mon 06:46:25 PM 40.6994 -77.7489 139° Southeast 368 423 21,000 -508 Descending New York Center
Mon 06:47:25 PM 40.6108 -77.6606 143° Southeast 387 445 20,500 -500 Descending New York Center
Mon 06:48:25 PM 40.5147 -77.5908 151° Southeast 392 451 20,000 -496 Descending New York Center
Mon 06:49:26 PM 40.4206 -77.5269 153° Southeast 387 445 19,500 -500 Descending New York Center
Mon 06:50:25 PM 40.3261 -77.4606 152° Southeast 387 445 19,000 -250 Descending New York Center
Mon 06:51:26 PM 40.2239 -77.3881 152° Southeast 382 440 19,000  Level New York Center
Mon 06:52:27 PM 40.1378 -77.3256 151° Southeast 382 440 19,000  Level New York Center
Mon 06:53:27 PM 40.0333 -77.2536 152° Southeast 387 445 19,000  Level New York Center
Mon 06:54:25 PM 39.9511 -77.1944 151° Southeast 387 445 19,000  Level New York Center
Mon 06:55:26 PM 39.8467 -77.1225 152° Southeast 387 445 19,000  Level New York Center
Mon 06:56:26 PM 39.7600 -77.0633 152° Southeast 387 445 19,000 -248 Level New York Center
Mon 06:57:27 PM 39.6717 -76.9611 138° Southeast 387 445 18,500 -605 Descending New York Center
Mon 06:58:25 PM 39.6117 -76.8694 130° Southeast 373 429 17,800 -826 Descending New York Center
Mon 06:59:45 PM 39.5167 -76.7333 132° Southeast 361 415 16,600 -1,329 Descending Potomac TRACON
Mon 07:00:45 PM 39.4667 -76.6333 123° Southeast 353 406 14,700 -1,950 Descending Potomac TRACON
Mon 07:01:45 PM 39.3833 -76.5667 148° Southeast 344 396 12,700 -1,619 Descending Potomac TRACON
Mon 07:02:51 PM 39.3000 -76.6000 197° South 305 351 11,300 -1,190 Descending Potomac TRACON
Mon 07:03:51 PM 39.2167 -76.6333 197° South 298 343 10,200 -632 Descending Potomac TRACON
Mon 07:04:45 PM 39.1667 -76.6833 218° Southwest 287 330 10,100 -53 Descending Potomac TRACON
Mon 07:05:45 PM 39.1333 -76.7833 247° West 280 322 10,100 -381 Level Potomac TRACON
Mon 07:06:51 PM 39.1000 -76.8833 247° West 279 321 9,300 -1,300 Descending Potomac TRACON
Mon 07:07:45 PM 39.0833 -76.9667 256° West 274 315 7,500 -1,950 Descending Potomac TRACON
Mon 07:08:51 PM 39.0500 -77.0667 247° West 267 307 5,400 -1,952 Descending Potomac TRACON
Mon 07:09:51 PM 39.0167 -77.1500 243° Southwest 259 298 3,400 -1,211 Descending Potomac TRACON
Mon 07:10:45 PM 38.9667 -77.1667 195° South 263 303 3,100 -632 Descending Potomac TRACON
Mon 07:11:45 PM 38.9333 -77.1167 131° Southeast 201 231 2,200 -1,050 Descending Potomac TRACON
Mon 07:12:45 PM 38.9000 -77.0667 131° Southeast 166 191 1,000 -1,200 Descending Potomac TRACON

Login

Don't have an account? Register now (free) for customized features, flight alerts, and more!